LGPZ/PVK METAR and TAF weather

Enter ICAO airport designator
Station Type Date Time Source
LGPZ METAR 2020/07/11 21:50 UTC NOAA

LGPZ 112150Z 25007KT CAVOK 23/21 Q1012


Station Type Date Time Source
LGPZ Decoded METAR 2020/07/11 21:50 UTC NOAA

Aktion Airport , Greece (LGPZ) 38-37N 020-46E 4M
Jul 11, 2020 - 05:50 PM EDT / 2020.07.11 2150 UTC
Wind: from the WSW (250 degrees) at 8 MPH (7 KT):0
Visibility: greater than 7 mile(s):0
Temperature: 73 F (23 C)
Dew Point: 69 F (21 C)
Relative Humidity: 88%
Pressure (altimeter): 29.88 in. Hg (1012 hPa)
ob: LGPZ 112150Z 25007KT CAVOK 23/21 Q1012
cycle: 22

Station Type Date Time Source
LGPZ TAF 2020/07/11 18:16 UTC NOAA

TAF LGPZ 111700Z 1118/1218 27010KT 9999 FEW025
BECMG 1122/1124 VRB05KT
BECMG 1207/1209 27012KT

Example: see airport list